createdAt,value
2024-04-12T00:02:13.925Z,61.22
2024-04-12T00:04:44.203Z,61.74
2024-04-12T00:07:17.932Z,61.99
2024-04-12T00:09:55.721Z,61.92
2024-04-12T00:12:29.628Z,62.23
2024-04-12T00:15:18.491Z,62.53
2024-04-12T00:17:49.393Z,62.86
2024-04-12T00:20:22.586Z,63.11
2024-04-12T00:22:57.161Z,63.33
2024-04-12T00:25:26.051Z,63.33
2024-04-12T00:27:55.732Z,63.78
2024-04-12T00:30:39.665Z,63.65
2024-04-12T00:33:11.909Z,64.03
2024-04-12T00:35:47.850Z,64.04
2024-04-12T00:38:18.065Z,64.52
2024-04-12T00:40:48.002Z,64.71
2024-04-12T00:43:20.041Z,65.01
2024-04-12T00:45:50.564Z,65.07
2024-04-12T00:48:22.733Z,64.90
2024-04-12T00:50:55.155Z,64.73
2024-04-12T00:53:23.930Z,64.83
2024-04-12T00:56:01.882Z,64.98
2024-04-12T00:58:34.608Z,64.86
2024-04-12T01:01:13.033Z,65.01
2024-04-12T01:03:48.948Z,64.55
2024-04-12T01:06:18.312Z,64.86
2024-04-12T01:08:47.394Z,64.28
2024-04-12T01:11:16.903Z,63.92
2024-04-12T01:13:44.929Z,64.10
2024-04-12T01:16:13.355Z,63.39
2024-04-12T01:18:44.058Z,63.30
2024-04-12T01:21:12.928Z,63.26
2024-04-12T01:23:45.971Z,62.81
2024-04-12T01:26:17.083Z,62.81
2024-04-12T01:28:45.712Z,62.46
2024-04-12T01:31:17.114Z,62.65
2024-04-12T01:33:54.424Z,61.97
2024-04-12T01:36:24.322Z,61.88
2024-04-12T01:38:58.697Z,61.95
2024-04-12T01:41:34.061Z,61.40
2024-04-12T01:44:08.055Z,61.31
2024-04-12T01:46:37.452Z,60.95
2024-04-12T01:49:12.349Z,60.92
2024-04-12T01:51:43.563Z,60.77
2024-04-12T01:54:23.263Z,60.46
2024-04-12T01:56:52.231Z,60.52
2024-04-12T01:59:24.565Z,60.12
2024-04-12T02:01:54.747Z,59.84
2024-04-12T02:04:23.754Z,59.22
2024-04-12T02:06:52.995Z,59.25
2024-04-12T02:09:22.057Z,59.25
2024-04-12T02:11:55.143Z,58.95
2024-04-12T02:14:24.110Z,58.63
2024-04-12T02:16:52.691Z,58.79
2024-04-12T02:19:23.613Z,58.59
2024-04-12T02:21:55.197Z,58.38
2024-04-12T02:24:23.315Z,58.25
2024-04-12T02:26:51.881Z,58.55
2024-04-12T02:29:23.212Z,58.37
2024-04-12T02:31:52.529Z,58.34
2024-04-12T02:34:20.734Z,58.10
2024-04-12T02:36:49.641Z,58.34
2024-04-12T02:39:24.051Z,58.36
2024-04-12T02:41:52.565Z,58.70
2024-04-12T02:44:20.923Z,58.55
2024-04-12T02:46:49.332Z,58.68
2024-04-12T02:49:17.441Z,58.69
2024-04-12T02:51:49.146Z,58.76
2024-04-12T02:54:18.263Z,58.82
2024-04-12T02:56:46.729Z,58.80
2024-04-12T02:59:15.654Z,59.23
2024-04-12T03:01:45.390Z,59.35
2024-04-12T03:04:13.684Z,60.50
2024-04-12T03:06:42.029Z,60.81
2024-04-12T03:09:12.717Z,61.49
2024-04-12T03:11:42.145Z,61.65
2024-04-12T03:14:11.782Z,62.10
2024-04-12T03:16:48.225Z,62.08
2024-04-12T03:19:17.504Z,62.07
2024-04-12T03:21:52.793Z,62.29
2024-04-12T03:24:21.399Z,62.08
2024-04-12T03:26:50.664Z,62.18
2024-04-12T03:29:19.015Z,62.03
2024-04-12T03:31:49.075Z,62.16
2024-04-12T03:34:17.701Z,62.25
2024-04-12T03:36:48.717Z,62.13
2024-04-12T03:39:22.730Z,62.37
2024-04-12T03:41:59.151Z,62.25
2024-04-12T03:44:33.840Z,62.75
2024-04-12T03:47:11.142Z,62.68
2024-04-12T03:49:43.867Z,63.10
2024-04-12T03:52:16.616Z,63.28
2024-04-12T03:54:49.741Z,63.28
2024-04-12T03:57:18.798Z,63.54
2024-04-12T03:59:47.503Z,63.92
2024-04-12T04:02:20.783Z,63.76
2024-04-12T04:04:53.603Z,63.61
2024-04-12T04:07:24.197Z,63.43
2024-04-12T04:09:52.813Z,63.44
2024-04-12T04:12:22.832Z,63.38
2024-04-12T04:14:52.594Z,63.16
2024-04-12T04:17:32.345Z,62.99
2024-04-12T04:20:09.070Z,63.33
2024-04-12T04:22:38.345Z,63.68
2024-04-12T04:25:10.578Z,64.15
2024-04-12T04:27:40.293Z,64.65
2024-04-12T04:30:09.114Z,65.33
2024-04-12T04:32:38.379Z,65.35
2024-04-12T04:35:07.279Z,65.47
2024-04-12T04:37:39.518Z,65.87
2024-04-12T04:40:18.986Z,65.56
2024-04-12T04:42:51.721Z,65.63
2024-04-12T04:45:23.631Z,66.29
2024-04-12T04:47:53.107Z,66.07
2024-04-12T04:50:22.767Z,64.19
2024-04-12T04:52:52.949Z,62.08
2024-04-12T04:55:21.212Z,58.95
2024-04-12T04:57:57.076Z,55.71
2024-04-12T05:00:26.326Z,52.22
2024-04-12T05:02:56.880Z,48.37
2024-04-12T05:05:29.537Z,43.20
2024-04-12T05:08:04.207Z,39.20
2024-04-12T05:10:36.775Z,35.05
2024-04-12T05:13:08.083Z,35.12
2024-04-12T05:15:42.817Z,35.02
2024-04-12T05:18:15.210Z,35.82
2024-04-12T05:20:45.361Z,37.04
2024-04-12T05:23:20.051Z,39.19
2024-04-12T05:25:49.179Z,40.22
2024-04-12T05:28:20.842Z,40.12
2024-04-12T05:30:52.483Z,41.37
2024-04-12T05:33:24.524Z,40.82
2024-04-12T05:35:53.718Z,41.54
2024-04-12T05:38:23.184Z,41.59
2024-04-12T05:40:55.403Z,41.08
2024-04-12T05:43:24.474Z,41.81
2024-04-12T05:45:55.347Z,41.69
2024-04-12T05:48:26.086Z,42.34
2024-04-12T05:50:57.202Z,41.15
2024-04-12T05:53:32.534Z,38.74
2024-04-12T05:56:21.983Z,38.19
2024-04-12T05:58:53.575Z,38.05
2024-04-12T06:01:27.076Z,37.42
2024-04-12T06:03:56.759Z,35.64
2024-04-12T06:06:25.762Z,35.57
2024-04-12T06:08:55.663Z,35.40
2024-04-12T06:11:26.735Z,35.49
2024-04-12T06:13:56.742Z,34.10
2024-04-12T06:16:25.769Z,31.80
2024-04-12T06:18:54.662Z,29.17
2024-04-12T06:21:24.016Z,28.19
2024-04-12T06:23:57.002Z,27.07
2024-04-12T06:26:25.850Z,27.17
2024-04-12T06:28:59.206Z,26.92
2024-04-12T06:31:36.571Z,26.66
2024-04-12T06:34:06.596Z,26.80
2024-04-12T06:36:35.873Z,26.31
2024-04-12T06:39:06.625Z,27.13
2024-04-12T06:41:35.231Z,27.54
2024-04-12T06:44:04.935Z,28.64
2024-04-12T06:46:37.532Z,28.75
2024-04-12T06:49:15.803Z,29.57
2024-04-12T06:52:02.533Z,29.18
2024-04-12T06:54:37.509Z,28.93
2024-04-12T06:57:10.669Z,28.08
2024-04-12T06:59:45.373Z,28.54
2024-04-12T07:02:15.666Z,27.90
2024-04-12T07:04:44.476Z,27.72
2024-04-12T07:07:14.217Z,26.48
2024-04-12T07:09:47.258Z,24.67
2024-04-12T07:12:15.496Z,23.05
2024-04-12T07:14:47.716Z,21.38
2024-04-12T07:17:22.357Z,21.44
2024-04-12T07:19:55.137Z,22.43
2024-04-12T07:22:28.392Z,23.92
2024-04-12T07:25:00.672Z,24.92
2024-04-12T07:27:29.950Z,26.08
2024-04-12T07:29:59.726Z,27.11
2024-04-12T07:32:37.573Z,28.61
2024-04-12T07:35:24.648Z,29.04
2024-04-12T07:38:03.706Z,29.66
2024-04-12T07:40:37.360Z,30.45
2024-04-12T07:43:16.604Z,31.24
2024-04-12T07:45:48.148Z,31.76
2024-04-12T07:48:22.336Z,32.13
2024-04-12T07:50:55.646Z,33.31
2024-04-12T07:53:24.414Z,33.17
2024-04-12T07:56:09.239Z,33.92
2024-04-12T07:58:38.146Z,34.60
2024-04-12T08:01:11.084Z,34.97
2024-04-12T08:03:44.452Z,36.22
2024-04-12T08:06:37.873Z,37.55
2024-04-12T08:09:07.685Z,37.86
2024-04-12T08:11:36.938Z,37.87
2024-04-12T08:14:10.141Z,38.34
2024-04-12T08:16:40.735Z,40.01
2024-04-12T08:19:33.368Z,40.35
2024-04-12T08:22:03.578Z,41.82
2024-04-12T08:24:31.623Z,42.27
2024-04-12T08:27:00.086Z,42.78
2024-04-12T08:29:28.197Z,42.61
2024-04-12T08:32:05.844Z,43.44
2024-04-12T08:34:35.143Z,43.95
2024-04-12T08:37:14.700Z,44.39
2024-04-12T08:39:44.853Z,44.43
2024-04-12T08:42:17.647Z,44.84
2024-04-12T08:44:47.741Z,44.92
2024-04-12T08:47:29.419Z,44.91
2024-04-12T08:50:14.740Z,45.83
2024-04-12T08:52:49.568Z,47.19
2024-04-12T08:55:22.312Z,47.44
2024-04-12T08:57:58.752Z,47.68
2024-04-12T09:00:34.547Z,47.98
2024-04-12T09:03:26.079Z,48.68
2024-04-12T09:05:55.065Z,48.62
2024-04-12T09:08:33.043Z,48.70
2024-04-12T09:11:08.336Z,49.26
2024-04-12T09:13:40.654Z,49.18
2024-04-12T09:16:19.938Z,48.19
2024-04-12T09:18:52.877Z,47.09
2024-04-12T09:21:38.140Z,45.11
2024-04-12T09:24:12.010Z,44.31
2024-04-12T09:26:57.519Z,43.59
2024-04-12T09:29:31.045Z,43.28
2024-04-12T09:32:19.363Z,42.83
2024-04-12T09:34:57.910Z,42.96
2024-04-12T09:37:31.612Z,41.93
2024-04-12T09:40:01.073Z,41.73
2024-04-12T09:42:46.705Z,42.08
2024-04-12T09:45:29.639Z,42.23
2024-04-12T09:48:18.030Z,42.12
2024-04-12T09:51:05.855Z,42.74
2024-04-12T09:53:52.612Z,43.16
2024-04-12T09:56:40.181Z,43.73
2024-04-12T09:59:50.285Z,44.21
2024-04-12T10:02:40.589Z,44.86
2024-04-12T10:05:31.694Z,44.74
2024-04-12T10:08:28.997Z,44.33
2024-04-12T10:11:18.615Z,43.46
2024-04-12T10:14:07.869Z,43.24
2024-04-12T10:17:06.574Z,42.73
2024-04-12T10:19:53.534Z,42.61
2024-04-12T10:22:44.896Z,41.83
2024-04-12T10:25:33.474Z,42.79
2024-04-12T10:28:24.741Z,42.44
2024-04-12T10:31:11.904Z,43.50
2024-04-12T10:34:04.905Z,43.14
2024-04-12T10:36:52.593Z,43.05
2024-04-12T10:39:31.780Z,42.36
2024-04-12T10:42:06.843Z,42.80
2024-04-12T10:44:35.211Z,42.12
2024-04-12T10:47:06.074Z,43.51
2024-04-12T10:49:34.642Z,44.01
2024-04-12T10:52:05.413Z,43.93
2024-04-12T10:54:34.166Z,44.69
2024-04-12T10:57:07.802Z,45.17
2024-04-12T10:59:36.856Z,44.41
2024-04-12T11:02:05.508Z,44.60
2024-04-12T11:04:54.458Z,44.32
2024-04-12T11:07:24.858Z,43.59
2024-04-12T11:10:15.787Z,43.00
2024-04-12T11:12:52.290Z,42.82
2024-04-12T11:15:23.388Z,44.01
2024-04-12T11:18:11.481Z,44.54
2024-04-12T11:21:18.114Z,45.85
2024-04-12T11:24:21.717Z,45.33
2024-04-12T11:27:08.383Z,45.68
2024-04-12T11:29:58.453Z,45.69
2024-04-12T11:32:26.719Z,45.76
2024-04-12T11:34:57.079Z,44.79
2024-04-12T11:37:26.305Z,44.05
2024-04-12T11:39:55.038Z,44.64
2024-04-12T11:42:24.938Z,44.07
2024-04-12T11:44:55.459Z,43.93
2024-04-12T11:47:25.280Z,44.61
2024-04-12T11:49:59.455Z,44.31
2024-04-12T11:52:27.868Z,45.35
2024-04-12T11:54:57.745Z,45.65
2024-04-12T11:57:31.406Z,44.88
2024-04-12T12:00:01.245Z,44.34
2024-04-12T12:02:45.916Z,44.73
2024-04-12T12:05:19.141Z,44.23
2024-04-12T12:07:48.621Z,43.49
2024-04-12T12:10:17.430Z,42.79
2024-04-12T12:12:45.662Z,42.43
2024-04-12T12:15:16.244Z,41.83
2024-04-12T12:17:44.528Z,42.42
2024-04-12T12:20:19.606Z,42.04
2024-04-12T12:22:51.365Z,42.97
2024-04-12T12:25:19.985Z,43.12
2024-04-12T12:27:47.998Z,43.47
2024-04-12T12:30:16.514Z,43.49
2024-04-12T12:32:47.754Z,44.04
2024-04-12T12:35:20.524Z,44.55
2024-04-12T12:37:50.011Z,44.86
2024-04-12T12:40:25.243Z,45.05
2024-04-12T12:43:01.609Z,44.34
2024-04-12T12:45:30.034Z,43.85
2024-04-12T12:47:59.411Z,44.11
2024-04-12T12:50:27.856Z,44.08
2024-04-12T12:52:56.955Z,45.71
2024-04-12T12:55:25.411Z,45.76
2024-04-12T12:58:11.124Z,46.10
2024-04-12T13:00:46.360Z,46.46
2024-04-12T13:03:27.109Z,46.14
2024-04-12T13:05:57.297Z,46.19
2024-04-12T13:08:27.011Z,46.58
2024-04-12T13:10:56.508Z,46.26
2024-04-12T13:13:25.333Z,47.43
2024-04-12T13:15:57.680Z,48.44
2024-04-12T13:18:28.995Z,49.08
2024-04-12T13:20:58.950Z,49.38
2024-04-12T13:23:28.182Z,49.96
2024-04-12T13:25:57.015Z,49.33
2024-04-12T13:28:25.446Z,49.42
2024-04-12T13:30:54.396Z,49.75
2024-04-12T13:33:22.562Z,50.64
2024-04-12T13:35:53.861Z,50.95
2024-04-12T13:38:22.172Z,50.82
2024-04-12T13:40:56.160Z,50.72
2024-04-12T13:43:26.778Z,50.74
2024-04-12T13:46:13.670Z,50.03
2024-04-12T13:49:00.196Z,49.49
2024-04-12T13:51:31.477Z,48.62
2024-04-12T13:53:59.825Z,47.83
2024-04-12T13:56:29.875Z,47.75
2024-04-12T13:59:12.109Z,47.08
2024-04-12T14:01:42.065Z,46.39
2024-04-12T14:04:19.644Z,46.08
2024-04-12T14:06:48.987Z,45.54
2024-04-12T14:09:24.954Z,45.30
2024-04-12T14:11:53.843Z,44.62
2024-04-12T14:14:24.599Z,43.82
2024-04-12T14:16:53.704Z,43.89
2024-04-12T14:19:22.543Z,44.69
2024-04-12T14:21:53.249Z,44.64
2024-04-12T14:24:42.207Z,44.59
2024-04-12T14:27:12.769Z,44.26
2024-04-12T14:29:41.440Z,45.29
2024-04-12T14:32:13.150Z,45.40
2024-04-12T14:34:46.833Z,45.82
2024-04-12T14:37:22.878Z,46.27
2024-04-12T14:39:52.222Z,46.29
2024-04-12T14:42:22.232Z,47.20
2024-04-12T14:44:50.614Z,47.40
2024-04-12T14:47:19.238Z,47.06
2024-04-12T14:49:49.295Z,46.75
2024-04-12T14:52:18.870Z,46.34
2024-04-12T14:54:47.763Z,46.82
2024-04-12T14:57:16.159Z,46.93
2024-04-12T14:59:47.230Z,46.96
2024-04-12T15:02:16.130Z,46.57
2024-04-12T15:05:02.857Z,46.93
2024-04-12T15:07:49.911Z,47.04
2024-04-12T15:10:37.133Z,46.70
2024-04-12T15:13:24.075Z,46.91
2024-04-12T15:16:10.655Z,47.57
2024-04-12T15:18:58.838Z,47.87
2024-04-12T15:21:46.729Z,48.56
2024-04-12T15:24:33.952Z,48.76
2024-04-12T15:27:20.870Z,48.81
2024-04-12T15:30:08.331Z,49.59
2024-04-12T15:32:55.024Z,49.36
2024-04-12T15:35:42.008Z,49.51
2024-04-12T15:38:28.652Z,50.94
2024-04-12T15:41:15.624Z,51.45
2024-04-12T15:44:02.028Z,51.51
2024-04-12T15:46:49.219Z,52.00
2024-04-12T15:49:25.765Z,52.19
2024-04-12T15:51:54.327Z,52.09
2024-04-12T15:54:27.866Z,52.42
2024-04-12T15:57:15.317Z,52.77
2024-04-12T16:00:01.999Z,53.25
2024-04-12T16:02:56.885Z,53.50
2024-04-12T16:05:43.632Z,53.56
2024-04-12T16:08:30.925Z,54.09
2024-04-12T16:10:59.475Z,54.36
2024-04-12T16:13:28.905Z,54.48
2024-04-12T16:15:57.253Z,55.03
2024-04-12T16:18:26.230Z,55.24
2024-04-12T16:20:54.488Z,55.79
2024-04-12T16:23:23.110Z,55.59
2024-04-12T16:25:58.123Z,56.08
2024-04-12T16:28:33.477Z,56.59
2024-04-12T16:31:06.551Z,57.00
2024-04-12T16:33:36.268Z,57.43
2024-04-12T16:36:05.257Z,57.60
2024-04-12T16:38:35.156Z,57.61
2024-04-12T16:41:04.813Z,57.62
2024-04-12T16:43:34.275Z,57.97
2024-04-12T16:46:02.959Z,58.34
2024-04-12T16:48:32.436Z,58.03
2024-04-12T16:51:01.568Z,58.33
2024-04-12T16:53:33.683Z,58.42
2024-04-12T16:56:02.094Z,59.20
2024-04-12T16:58:30.753Z,59.42
2024-04-12T17:00:59.001Z,58.97
2024-04-12T17:03:27.976Z,59.84
2024-04-12T17:05:56.300Z,59.97
2024-04-12T17:08:24.796Z,60.58
2024-04-12T17:10:55.695Z,60.98
2024-04-12T17:13:24.424Z,61.62
2024-04-12T17:15:53.498Z,62.32
2024-04-12T17:18:23.116Z,62.97
2024-04-12T17:20:55.976Z,63.32
2024-04-12T17:23:24.525Z,63.60
2024-04-12T17:25:52.748Z,63.95
2024-04-12T17:28:21.144Z,64.48
2024-04-12T17:30:57.774Z,65.19
2024-04-12T17:33:29.508Z,65.34
2024-04-12T17:35:58.659Z,66.06
2024-04-12T17:38:30.005Z,66.16
2024-04-12T17:40:58.791Z,66.62
2024-04-12T17:43:27.250Z,67.31
2024-04-12T17:45:55.308Z,67.76
2024-04-12T17:48:23.882Z,68.23
2024-04-12T17:51:01.394Z,68.93
2024-04-12T17:53:32.992Z,68.82
2024-04-12T17:56:01.350Z,69.31
2024-04-12T17:58:31.411Z,69.16
2024-04-12T18:01:07.077Z,69.10
2024-04-12T18:03:36.567Z,69.28
2024-04-12T18:06:05.129Z,69.24
2024-04-12T18:08:33.845Z,69.63
2024-04-12T18:11:04.220Z,69.71
2024-04-12T18:13:33.298Z,69.92
2024-04-12T18:16:03.075Z,69.91
2024-04-12T18:18:31.823Z,70.03
2024-04-12T18:21:07.456Z,70.35
2024-04-12T18:23:36.788Z,70.04
2024-04-12T18:26:05.180Z,70.17
2024-04-12T18:28:34.181Z,69.96
2024-04-12T18:31:07.853Z,70.16
2024-04-12T18:33:37.345Z,70.40
2024-04-12T18:36:22.506Z,70.57
2024-04-12T18:39:11.770Z,70.61
2024-04-12T18:42:00.689Z,70.66
2024-04-12T18:44:48.480Z,71.03
2024-04-12T18:47:16.589Z,71.58
2024-04-12T18:49:45.567Z,72.27
2024-04-12T18:52:15.307Z,72.41
2024-04-12T18:54:44.021Z,72.91
2024-04-12T18:57:12.884Z,73.15
2024-04-12T18:59:41.274Z,73.88
2024-04-12T19:02:09.327Z,74.17
2024-04-12T19:04:37.733Z,74.34
2024-04-12T19:07:06.633Z,74.73
2024-04-12T19:09:35.096Z,74.96
2024-04-12T19:12:04.120Z,75.23
2024-04-12T19:14:32.602Z,75.88
2024-04-12T19:17:00.638Z,76.02
2024-04-12T19:19:29.368Z,76.72
2024-04-12T19:21:57.455Z,76.96
2024-04-12T19:24:26.174Z,77.38
2024-04-12T19:26:55.597Z,77.54
2024-04-12T19:29:25.740Z,77.70
2024-04-12T19:31:55.660Z,77.87
2024-04-12T19:34:23.911Z,78.29
2024-04-12T19:36:52.338Z,78.56
2024-04-12T19:39:20.623Z,79.11
2024-04-12T19:41:49.025Z,78.88
2024-04-12T19:44:17.783Z,79.57
2024-04-12T19:46:46.649Z,79.47
2024-04-12T19:49:14.989Z,80.12
2024-04-12T19:51:45.474Z,79.94
2024-04-12T19:54:13.983Z,80.41
2024-04-12T19:56:43.139Z,80.45
2024-04-12T19:59:11.206Z,80.80
2024-04-12T20:01:40.510Z,80.75
2024-04-12T20:04:08.587Z,80.99
2024-04-12T20:06:45.258Z,81.74
2024-04-12T20:09:13.436Z,81.88
2024-04-12T20:11:43.037Z,81.68
2024-04-12T20:14:13.493Z,82.23
2024-04-12T20:16:42.050Z,82.14
2024-04-12T20:19:11.152Z,82.20
2024-04-12T20:21:40.358Z,82.89
2024-04-12T20:24:16.074Z,82.61
2024-04-12T20:26:47.548Z,82.88
2024-04-12T20:29:18.136Z,83.37
2024-04-12T20:32:14.147Z,83.54
2024-04-12T20:34:49.967Z,83.17
2024-04-12T20:37:20.562Z,83.20
2024-04-12T20:39:48.631Z,83.42
2024-04-12T20:42:17.949Z,83.39
2024-04-12T20:44:45.994Z,83.51
2024-04-12T20:47:17.733Z,83.43
2024-04-12T20:49:49.267Z,83.32
2024-04-12T20:52:20.960Z,83.22
2024-04-12T20:54:50.983Z,82.89
2024-04-12T20:57:19.667Z,83.02
2024-04-12T20:59:49.617Z,82.87
2024-04-12T21:02:20.674Z,83.15
2024-04-12T21:04:51.403Z,83.14
2024-04-12T21:07:20.705Z,83.01
2024-04-12T21:09:48.860Z,82.95
2024-04-12T21:12:17.279Z,82.84
2024-04-12T21:14:45.331Z,82.91
2024-04-12T21:17:14.524Z,82.94
2024-04-12T21:19:42.544Z,83.07
2024-04-12T21:22:11.968Z,82.79
2024-04-12T21:24:40.727Z,82.81
2024-04-12T21:27:09.132Z,82.62
2024-04-12T21:29:37.132Z,82.63
2024-04-12T21:32:06.135Z,82.55
2024-04-12T21:34:35.421Z,82.66
2024-04-12T21:37:05.462Z,82.77
2024-04-12T21:39:33.970Z,83.02
2024-04-12T21:42:02.439Z,83.13
2024-04-12T21:44:31.437Z,82.95
2024-04-12T21:47:00.052Z,82.71
2024-04-12T21:49:28.068Z,83.04
2024-04-12T21:51:58.819Z,82.84
2024-04-12T21:54:26.943Z,82.74
2024-04-12T21:56:56.701Z,83.30
2024-04-12T21:59:25.595Z,83.12
2024-04-12T22:01:54.068Z,83.06
2024-04-12T22:04:23.241Z,83.69
2024-04-12T22:06:53.899Z,83.83
2024-04-12T22:09:22.051Z,83.95
2024-04-12T22:11:50.646Z,83.84
2024-04-12T22:14:18.714Z,84.14
2024-04-12T22:16:47.175Z,84.13
2024-04-12T22:19:15.190Z,84.26
2024-04-12T22:21:43.571Z,84.51
2024-04-12T22:24:11.739Z,84.35
2024-04-12T22:26:45.962Z,84.44
2024-04-12T22:29:15.237Z,84.76
2024-04-12T22:31:44.823Z,84.99
2024-04-12T22:34:15.357Z,84.85
2024-04-12T22:36:43.834Z,84.74
2024-04-12T22:39:11.847Z,85.05
2024-04-12T22:41:40.292Z,84.64
2024-04-12T22:44:08.317Z,84.97
2024-04-12T22:46:39.739Z,84.93
2024-04-12T22:49:08.043Z,84.23
2024-04-12T22:51:36.815Z,84.63
2024-04-12T22:54:05.795Z,84.21
2024-04-12T22:56:34.225Z,84.25
2024-04-12T22:59:02.836Z,84.15
2024-04-12T23:01:31.252Z,84.51
2024-04-12T23:03:59.385Z,84.58
2024-04-12T23:06:28.850Z,84.57
2024-04-12T23:08:56.942Z,84.58
2024-04-12T23:11:25.373Z,84.48
2024-04-12T23:13:53.607Z,84.72
2024-04-12T23:16:21.936Z,84.55
2024-04-12T23:18:52.550Z,84.28
2024-04-12T23:21:21.804Z,84.31
2024-04-12T23:23:50.153Z,84.19
2024-04-12T23:26:18.586Z,84.15
2024-04-12T23:28:47.710Z,84.21
2024-04-12T23:31:16.281Z,84.00
2024-04-12T23:33:48.387Z,83.83
2024-04-12T23:36:17.203Z,83.57
2024-04-12T23:38:45.242Z,83.65
2024-04-12T23:41:13.569Z,83.19
2024-04-12T23:43:41.589Z,83.27
2024-04-12T23:46:10.332Z,82.99
2024-04-12T23:48:39.982Z,82.44
2024-04-12T23:51:08.429Z,82.32
2024-04-12T23:53:36.476Z,81.90
2024-04-12T23:56:05.042Z,81.81
2024-04-12T23:58:32.994Z,81.25
